Time;durP1;ratioP1;P1;durP2;ratioP2;P2;SDS_P1;SDS_P2;PMS_P1;PMS_P2;Temp;Humidity;BMP_temperature;BMP_pressure;BME280_temperature;BME280_humidity;BME280_pressure;Samples;Min_cycle;Max_cycle;Signal;HPM_P1;HPM_P2
2022/01/27 00:00:01;;;;;;;44.40;13.77;;;0.10;99.70;;;;;;5072427;28;20466;-66
2022/01/27 00:02:39;;;;;;;45.47;13.60;;;0.10;99.70;;;;;;5072513;28;20470;-66
2022/01/27 00:05:16;;;;;;;43.10;13.10;;;0.00;99.70;;;;;;5072432;28;20762;-66
2022/01/27 00:07:43;;;;;;;36.50;12.93;;;0.90;99.70;;;;;;5072316;28;20971;-66
2022/01/27 00:10:20;;;;;;;36.30;11.97;;;0.90;99.70;;;;;;5071689;28;20474;-66
2022/01/27 00:12:47;;;;;;;40.50;13.00;;;0.70;99.70;;;;;;5071532;28;20946;-66
2022/01/27 00:15:15;;;;;;;44.20;14.07;;;0.60;99.70;;;;;;5072390;28;20830;-66
2022/01/27 00:17:43;;;;;;;41.60;13.07;;;0.40;99.70;;;;;;5072347;28;20450;-67
2022/01/27 00:20:13;;;;;;;50.63;14.87;;;0.20;99.70;;;;;;5071809;28;20473;-67
2022/01/27 00:22:42;;;;;;;48.00;14.93;;;0.00;99.70;;;;;;5071093;28;20559;-66
2022/01/27 00:25:10;;;;;;;61.40;17.73;;;0.00;99.70;;;;;;5071955;28;20834;-66
2022/01/27 00:27:37;;;;;;;51.67;13.77;;;0.20;99.70;;;;;;5071873;28;20458;-66
2022/01/27 00:30:06;;;;;;;44.70;13.70;;;0.20;99.70;;;;;;5071640;28;20494;-66
2022/01/27 00:32:33;;;;;;;51.97;14.37;;;0.10;99.70;;;;;;5072175;28;20451;-66
2022/01/27 00:35:01;;;;;;;49.20;14.60;;;0.30;99.70;;;;;;5072125;28;20438;-66
2022/01/27 00:37:29;;;;;;;47.50;14.00;;;0.20;99.70;;;;;;5072142;28;20450;-66
2022/01/27 00:39:56;;;;;;;47.13;14.50;;;0.20;99.70;;;;;;5071485;28;20466;-66
2022/01/27 00:42:24;;;;;;;51.53;13.67;;;0.20;99.70;;;;;;5072071;28;20490;-66
2022/01/27 00:44:50;;;;;;;51.37;14.53;;;0.10;99.70;;;;;;5071566;28;20508;-66
2022/01/27 00:47:17;;;;;;;46.03;14.23;;;0.00;99.70;;;;;;5071891;28;20435;-66
2022/01/27 00:49:44;;;;;;;52.50;14.27;;;0.20;99.70;;;;;;5071101;28;21013;-66
2022/01/27 00:52:15;;;;;;;43.80;13.10;;;0.00;99.70;;;;;;5071831;28;20442;-66
2022/01/27 00:54:44;;;;;;;46.00;13.37;;;0.10;99.70;;;;;;5071801;28;20484;-66
2022/01/27 00:57:18;;;;;;;46.60;13.63;;;0.40;99.70;;;;;;5071736;28;20520;-66
2022/01/27 00:59:53;;;;;;;47.40;13.53;;;0.30;99.70;;;;;;5070492;28;20470;-66
2022/01/27 01:02:30;;;;;;;46.40;13.80;;;0.20;99.70;;;;;;5071757;28;20766;-66
2022/01/27 01:05:10;;;;;;;47.87;14.37;;;0.20;99.70;;;;;;5071554;28;20478;-66
2022/01/27 01:07:41;;;;;;;50.60;14.80;;;0.00;99.70;;;;;;5071612;28;20866;-66
2022/01/27 01:11:10;;;;;;;53.83;15.07;;;0.10;99.70;;;;;;5070990;28;20506;-66
2022/01/27 01:16:08;;;;;;;47.13;13.23;;;0.40;99.70;;;;;;5070977;28;20476;-66
2022/01/27 01:18:45;;;;;;;55.77;14.63;;;0.20;99.70;;;;;;5070672;28;20446;-66
2022/01/27 01:21:31;;;;;;;44.67;13.97;;;0.20;99.70;;;;;;5070697;28;20438;-66
2022/01/27 01:29:55;;;;;;;47.03;14.50;;;0.70;99.70;;;;;;5028460;28;21061;-66
2022/01/27 01:32:37;;;;;;;50.20;15.63;;;0.80;99.70;;;;;;5065261;28;20462;-66
2022/01/27 01:35:06;;;;;;;50.53;14.93;;;0.70;99.70;;;;;;5071131;28;20446;-66
2022/01/27 01:37:37;;;;;;;49.23;14.73;;;0.40;99.70;;;;;;5070882;28;20497;-66
2022/01/27 01:40:07;;;;;;;54.63;13.73;;;0.20;99.70;;;;;;5070850;28;20560;-66
2022/01/27 01:42:35;;;;;;;51.40;15.20;;;0.30;99.70;;;;;;5071027;28;20446;-66
2022/01/27 01:45:04;;;;;;;47.23;14.37;;;0.20;99.70;;;;;;5071106;28;20438;-66
2022/01/27 01:47:30;;;;;;;51.33;15.23;;;0.50;99.70;;;;;;5070927;28;20451;-66
2022/01/27 01:49:57;;;;;;;50.70;15.03;;;0.70;99.70;;;;;;5070547;28;20474;-66
2022/01/27 01:52:25;;;;;;;55.63;16.13;;;0.80;99.70;;;;;;5070780;28;20846;-66
2022/01/27 01:54:52;;;;;;;52.30;14.53;;;0.80;99.70;;;;;;5071003;28;20472;-65
2022/01/27 01:57:18;;;;;;;50.53;14.63;;;1.10;99.70;;;;;;5070543;28;20447;-66
2022/01/27 01:59:46;;;;;;;56.30;15.03;;;1.00;99.70;;;;;;5070535;28;20820;-66
2022/01/27 02:02:14;;;;;;;48.73;14.10;;;1.10;99.70;;;;;;5070885;28;20446;-66
2022/01/27 02:04:40;;;;;;;42.93;14.00;;;1.00;99.70;;;;;;5070700;28;20455;-66
2022/01/27 02:07:15;;;;;;;51.47;15.90;;;0.80;99.70;;;;;;5070831;28;20466;-66
2022/01/27 02:10:02;;;;;;;50.43;14.33;;;0.90;99.70;;;;;;5070016;28;20486;-66
2022/01/27 02:18:00;;;;;;;55.50;16.70;;;0.90;99.70;;;;;;5070427;28;20422;-66
2022/01/27 02:20:29;;;;;;;47.77;14.93;;;0.80;99.70;;;;;;5070942;28;20536;-66
2022/01/27 02:22:56;;;;;;;48.13;14.43;;;0.90;99.70;;;;;;5070603;28;20946;-66
2022/01/27 02:25:22;;;;;;;57.03;16.30;;;0.80;99.70;;;;;;5070668;28;20446;-66
2022/01/27 02:27:53;;;;;;;55.43;14.80;;;0.70;99.70;;;;;;5070121;28;20451;-66
2022/01/27 02:30:19;;;;;;;53.93;15.87;;;0.30;99.70;;;;;;5070253;28;20485;-66
2022/01/27 02:32:46;;;;;;;55.90;16.10;;;0.70;99.70;;;;;;5074423;28;20835;-67
2022/01/27 02:35:13;;;;;;;55.30;15.23;;;0.60;99.70;;;;;;5074503;28;20458;-66
2022/01/27 02:37:41;;;;;;;59.27;15.50;;;0.40;99.70;;;;;;5074060;28;20447;-64
2022/01/27 02:40:09;;;;;;;60.93;15.90;;;0.40;99.70;;;;;;5074138;28;20560;-66
2022/01/27 02:42:37;;;;;;;60.80;15.77;;;0.70;99.70;;;;;;5074479;28;20442;-66
2022/01/27 02:45:09;;;;;;;52.80;15.40;;;0.90;99.70;;;;;;5074091;28;20488;-66
2022/01/27 02:47:36;;;;;;;52.37;15.50;;;0.60;99.70;;;;;;5073834;28;20819;-66
2022/01/27 02:50:04;;;;;;;55.47;15.83;;;0.20;99.70;;;;;;5073748;28;20930;-66
2022/01/27 02:52:31;;;;;;;60.17;17.77;;;0.10;99.70;;;;;;5074034;28;20442;-66
2022/01/27 02:54:59;;;;;;;41.80;14.20;;;0.20;99.70;;;;;;5074118;28;20861;-66
2022/01/27 02:57:26;;;;;;;53.30;16.30;;;0.60;99.70;;;;;;5073944;28;20450;-66
2022/01/27 02:59:54;;;;;;;48.30;14.93;;;0.70;99.70;;;;;;5073326;28;20458;-66
2022/01/27 03:02:22;;;;;;;48.03;15.13;;;1.10;99.70;;;;;;5073796;28;20926;-66
2022/01/27 03:04:48;;;;;;;58.27;15.70;;;1.00;99.70;;;;;;5073906;28;20508;-66
2022/01/27 03:07:15;;;;;;;55.57;16.30;;;0.80;99.70;;;;;;5073550;28;20821;-66
2022/01/27 03:09:42;;;;;;;53.33;15.17;;;0.50;99.70;;;;;;5073264;28;20509;-66
2022/01/27 03:12:12;;;;;;;56.90;15.97;;;0.90;99.70;;;;;;5072878;28;20443;-67
2022/01/27 03:14:39;;;;;;;59.10;15.80;;;0.90;99.70;;;;;;5073428;28;20504;-67
2022/01/27 03:17:08;;;;;;;47.63;14.60;;;0.60;99.70;;;;;;5073617;28;20451;-66
2022/01/27 03:19:36;;;;;;;50.93;14.60;;;0.40;99.70;;;;;;5073111;28;20842;-66
2022/01/27 03:22:04;;;;;;;53.10;15.90;;;0.40;99.70;;;;;;5073479;28;20479;-66
2022/01/27 03:24:32;;;;;;;57.27;17.37;;;0.70;99.70;;;;;;5073099;28;20451;-66
2022/01/27 03:26:59;;;;;;;50.70;15.40;;;0.70;99.70;;;;;;5073689;28;21021;-66
2022/01/27 03:29:27;;;;;;;47.77;15.10;;;0.90;99.70;;;;;;5072986;28;20466;-67
2022/01/27 03:31:55;;;;;;;57.73;16.27;;;1.00;99.70;;;;;;5073140;28;20478;-66
2022/01/27 03:34:22;;;;;;;57.93;15.70;;;1.30;99.70;;;;;;5073337;28;20835;-66
2022/01/27 03:36:49;;;;;;;50.57;15.57;;;1.10;99.70;;;;;;5073261;28;20504;-66
2022/01/27 03:39:18;;;;;;;45.47;15.27;;;1.10;99.70;;;;;;5072365;28;20467;-66
2022/01/27 03:41:49;;;;;;;45.53;14.20;;;1.00;99.70;;;;;;5073167;28;20466;-66
2022/01/27 03:44:16;;;;;;;52.97;16.30;;;1.00;99.70;;;;;;5072169;28;20465;-66
2022/01/27 03:46:44;;;;;;;52.23;15.53;;;0.90;99.70;;;;;;5073161;28;20446;-66
2022/01/27 03:49:11;;;;;;;46.63;15.13;;;0.90;99.70;;;;;;5072064;28;20532;-66
2022/01/27 03:51:38;;;;;;;42.23;14.40;;;0.80;99.70;;;;;;5073071;28;20508;-66
2022/01/27 03:54:04;;;;;;;46.20;14.87;;;1.00;99.70;;;;;;5072978;28;20442;-66
2022/01/27 03:56:31;;;;;;;47.43;13.87;;;1.20;99.70;;;;;;5072635;28;20450;-66
2022/01/27 03:58:58;;;;;;;44.80;14.70;;;1.50;99.70;;;;;;5072082;28;20529;-66
2022/01/27 04:01:24;;;;;;;43.87;14.00;;;1.30;99.70;;;;;;5072628;28;20452;-66
2022/01/27 04:03:57;;;;;;;47.53;14.63;;;0.90;99.70;;;;;;5072758;28;20526;-66
2022/01/27 04:06:32;;;;;;;49.23;15.23;;;0.80;99.70;;;;;;5072872;28;20447;-66
2022/01/27 04:08:59;;;;;;;53.73;15.10;;;0.90;99.70;;;;;;5072070;28;20454;-66
2022/01/27 04:11:26;;;;;;;49.60;14.73;;;0.80;99.70;;;;;;5072148;28;20489;-66
2022/01/27 04:13:53;;;;;;;47.87;14.27;;;0.80;99.70;;;;;;5072762;28;20504;-65
2022/01/27 04:16:19;;;;;;;53.83;15.40;;;0.80;99.70;;;;;;5072452;28;20445;-66
2022/01/27 04:18:46;;;;;;;40.33;14.43;;;0.70;99.70;;;;;;5071980;28;20442;-66
2022/01/27 04:21:15;;;;;;;47.20;15.53;;;0.80;99.70;;;;;;5072380;28;20478;-66
2022/01/27 04:23:41;;;;;;;44.10;15.30;;;0.70;99.70;;;;;;5093095;22;20501;-66
2022/01/27 04:26:09;;;;;;;50.43;14.50;;;0.70;99.70;;;;;;5091858;28;20445;-66
2022/01/27 04:28:37;;;;;;;41.47;13.67;;;0.80;99.70;;;;;;5091979;28;20438;-67
2022/01/27 04:31:07;;;;;;;47.17;14.93;;;0.50;99.70;;;;;;5092286;28;20499;-66
2022/01/27 04:33:35;;;;;;;42.60;14.03;;;1.20;99.70;;;;;;5092387;28;20457;-66
2022/01/27 04:36:08;;;;;;;47.13;15.20;;;1.10;99.70;;;;;;5092389;28;20507;-66
2022/01/27 04:38:42;;;;;;;52.67;15.70;;;1.10;99.70;;;;;;5091821;28;20491;-66
2022/01/27 04:41:15;;;;;;;55.67;17.20;;;0.70;99.70;;;;;;5092285;28;20528;-66
2022/01/27 04:43:48;;;;;;;53.03;18.10;;;0.80;99.70;;;;;;5092063;28;20560;-66
2022/01/27 04:46:23;;;;;;;56.97;18.30;;;0.70;99.70;;;;;;5092151;28;20914;-66
2022/01/27 04:48:53;;;;;;;54.67;17.97;;;0.50;99.70;;;;;;5091738;28;20509;-67
2022/01/27 04:51:23;;;;;;;56.53;18.50;;;0.90;99.70;;;;;;5092064;28;20546;-66
2022/01/27 04:53:57;;;;;;;52.77;17.50;;;1.20;99.70;;;;;;5091323;28;21030;-66
2022/01/27 04:56:25;;;;;;;47.60;15.87;;;1.30;99.70;;;;;;5091559;28;20805;-66
2022/01/27 04:58:56;;;;;;;55.07;18.07;;;1.40;99.70;;;;;;5091465;28;20446;-66
2022/01/27 05:01:30;;;;;;;56.23;18.70;;;1.10;99.70;;;;;;5091857;28;20473;-66
2022/01/27 05:04:01;;;;;;;54.70;17.07;;;1.00;99.70;;;;;;5091703;28;20501;-66
2022/01/27 05:06:28;;;;;;;52.30;17.50;;;1.40;99.70;;;;;;5091885;28;20929;-66
2022/01/27 05:08:56;;;;;;;53.03;19.63;;;1.10;99.70;;;;;;5091290;28;20449;-67
2022/01/27 05:11:27;;;;;;;50.70;16.50;;;1.00;99.70;;;;;;5090862;28;20496;-66
2022/01/27 05:13:57;;;;;;;52.07;16.10;;;1.00;99.70;;;;;;5091729;28;20477;-66
2022/01/27 05:16:24;;;;;;;49.73;17.10;;;1.00;99.70;;;;;;5091686;28;20446;-66
2022/01/27 05:18:51;;;;;;;47.60;16.90;;;1.20;99.70;;;;;;5090956;28;20452;-66
2022/01/27 05:21:18;;;;;;;53.57;18.83;;;1.10;99.70;;;;;;5091562;28;20474;-66
2022/01/27 05:23:44;;;;;;;52.13;18.13;;;0.90;99.70;;;;;;5091505;28;20474;-66
2022/01/27 05:26:12;;;;;;;51.07;16.90;;;0.60;99.70;;;;;;5091389;28;20446;-66
2022/01/27 05:28:39;;;;;;;52.93;18.00;;;0.50;99.70;;;;;;5091031;28;20456;-66
2022/01/27 05:31:06;;;;;;;55.00;17.87;;;0.50;99.70;;;;;;5091232;28;20882;-66
2022/01/27 05:33:33;;;;;;;52.77;18.17;;;0.30;99.70;;;;;;5087712;28;21000;-65
2022/01/27 05:36:00;;;;;;;53.30;17.90;;;0.70;99.70;;;;;;5080354;28;20446;-66
2022/01/27 05:38:27;;;;;;;49.60;16.23;;;0.40;99.70;;;;;;5085351;28;20454;-66
2022/01/27 05:40:54;;;;;;;55.77;17.80;;;0.40;99.70;;;;;;5084169;28;20458;-66
2022/01/27 05:43:22;;;;;;;56.20;17.87;;;0.50;99.70;;;;;;5083707;28;20458;-66
2022/01/27 05:45:48;;;;;;;58.00;17.17;;;0.60;99.70;;;;;;5081360;28;20473;-66
2022/01/27 05:48:15;;;;;;;51.07;16.57;;;1.00;99.70;;;;;;5079350;28;20461;-66
2022/01/27 05:50:42;;;;;;;55.47;17.10;;;0.80;99.70;;;;;;5079357;28;20518;-67
2022/01/27 05:53:09;;;;;;;53.37;17.30;;;0.40;99.70;;;;;;5081966;28;20489;-66
2022/01/27 05:55:35;;;;;;;48.70;17.67;;;0.40;99.70;;;;;;5085078;28;20458;-66
2022/01/27 05:58:02;;;;;;;50.53;16.37;;;0.90;99.70;;;;;;5086999;28;20989;-66
2022/01/27 06:00:30;;;;;;;51.57;17.30;;;0.90;99.70;;;;;;5082953;28;20454;-66
2022/01/27 06:02:57;;;;;;;53.07;16.60;;;0.40;99.70;;;;;;5083975;28;20470;-66
2022/01/27 06:05:24;;;;;;;49.80;16.77;;;0.20;99.70;;;;;;5081291;28;20446;-66
2022/01/27 06:07:50;;;;;;;53.03;17.00;;;0.10;99.70;;;;;;5085027;28;20448;-66
2022/01/27 06:10:17;;;;;;;49.93;16.63;;;0.10;99.70;;;;;;5084841;28;20483;-66
2022/01/27 06:12:52;;;;;;;50.83;17.03;;;0.00;99.70;;;;;;5084089;28;20494;-66
2022/01/27 06:15:19;;;;;;;49.23;16.30;;;0.10;99.70;;;;;;5092685;28;20952;-66
2022/01/27 06:17:47;;;;;;;48.57;16.57;;;0.00;99.70;;;;;;5073762;28;20504;-64
2022/01/27 06:20:15;;;;;;;49.47;17.10;;;0.20;99.70;;;;;;5072610;28;20441;-67
2022/01/27 06:22:43;;;;;;;45.03;16.27;;;0.40;99.70;;;;;;5073674;28;20470;-66
2022/01/27 06:25:11;;;;;;;50.33;16.40;;;0.50;99.70;;;;;;5074335;28;20566;-66
2022/01/27 06:27:38;;;;;;;47.50;15.90;;;0.50;99.70;;;;;;5084510;28;20434;-67
2022/01/27 06:30:07;;;;;;;45.87;15.93;;;0.80;99.70;;;;;;5094174;28;20473;-67
2022/01/27 06:32:35;;;;;;;47.50;17.17;;;0.50;99.70;;;;;;5094238;28;20478;-66
2022/01/27 06:35:04;;;;;;;44.43;15.40;;;0.40;99.70;;;;;;5094521;28;20865;-67
2022/01/27 06:37:31;;;;;;;46.70;15.57;;;0.10;99.70;;;;;;5094845;28;20480;-66
2022/01/27 06:39:58;;;;;;;52.07;17.27;;;0.10;99.70;;;;;;5094538;28;20437;-65
2022/01/27 06:42:25;;;;;;;45.40;16.47;;;0.60;99.70;;;;;;5093102;28;20814;-66
2022/01/27 06:44:52;;;;;;;43.57;15.87;;;0.80;99.70;;;;;;5094392;28;20438;-66
2022/01/27 06:47:19;;;;;;;49.53;16.50;;;0.60;99.70;;;;;;5094401;28;20453;-66
2022/01/27 06:49:46;;;;;;;49.00;16.03;;;1.00;99.70;;;;;;5094006;28;20445;-66
2022/01/27 06:52:14;;;;;;;49.50;15.23;;;1.00;99.70;;;;;;5094136;28;20477;-66
2022/01/27 06:54:41;;;;;;;46.20;15.80;;;1.00;99.70;;;;;;5094268;28;20943;-65
2022/01/27 06:57:08;;;;;;;50.70;16.70;;;1.00;99.70;;;;;;5090149;28;20465;-66
2022/01/27 06:59:35;;;;;;;49.00;17.10;;;0.80;99.70;;;;;;5091511;28;20454;-66
2022/01/27 07:02:02;;;;;;;46.70;16.10;;;0.60;99.70;;;;;;5093464;28;20507;-65
2022/01/27 07:04:29;;;;;;;51.87;15.87;;;0.30;99.70;;;;;;5093855;28;20442;-65
2022/01/27 07:06:56;;;;;;;48.90;15.40;;;0.00;99.70;;;;;;5093406;28;20916;-66
2022/01/27 07:09:24;;;;;;;53.90;17.00;;;0.30;99.70;;;;;;5093496;28;20870;-65
2022/01/27 07:11:50;;;;;;;45.53;15.70;;;0.40;99.70;;;;;;5092806;28;20497;-64
2022/01/27 07:14:17;;;;;;;47.30;16.43;;;0.50;99.70;;;;;;5093516;28;20488;-65
2022/01/27 07:16:44;;;;;;;47.93;16.27;;;0.20;99.70;;;;;;5092590;28;20966;-67
2022/01/27 07:19:11;;;;;;;51.63;16.13;;;0.00;99.70;;;;;;5092347;28;20452;-67
2022/01/27 07:21:38;;;;;;;46.83;15.00;;;0.10;99.70;;;;;;5093327;28;20842;-68
2022/01/27 07:24:05;;;;;;;45.10;15.00;;;0.40;99.70;;;;;;5093267;28;20480;-65
2022/01/27 07:26:33;;;;;;;43.57;15.50;;;0.50;99.70;;;;;;5093280;28;20446;-67
2022/01/27 07:29:00;;;;;;;45.13;14.67;;;0.60;99.70;;;;;;5093042;28;20836;-67
2022/01/27 07:31:27;;;;;;;48.63;18.30;;;0.40;99.70;;;;;;5093230;28;21033;-66
2022/01/27 07:33:54;;;;;;;44.10;15.57;;;0.50;99.70;;;;;;5093378;28;20462;-66
2022/01/27 07:36:21;;;;;;;50.30;17.23;;;0.70;99.70;;;;;;5093187;28;20449;-66
2022/01/27 07:38:49;;;;;;;41.13;15.37;;;0.80;99.70;;;;;;5092685;28;20653;-67
2022/01/27 07:41:17;;;;;;;45.40;15.53;;;0.70;99.70;;;;;;5093361;28;20513;-66
2022/01/27 07:43:46;;;;;;;44.53;14.37;;;0.50;99.70;;;;;;5093001;28;20994;-67
2022/01/27 07:46:13;;;;;;;43.37;15.10;;;0.80;99.70;;;;;;5093227;28;20844;-67
2022/01/27 07:48:40;;;;;;;53.50;19.63;;;0.80;99.70;;;;;;5092678;28;20489;-67
2022/01/27 07:51:07;;;;;;;43.53;14.80;;;0.80;99.70;;;;;;5093140;28;20449;-66
2022/01/27 07:53:35;;;;;;;39.43;12.87;;;0.80;99.70;;;;;;5091060;28;20534;-67
2022/01/27 07:56:02;;;;;;;38.93;14.23;;;0.80;99.70;;;;;;5092799;28;20532;-67
2022/01/27 07:58:29;;;;;;;41.30;13.10;;;0.80;99.70;;;;;;5081210;28;20491;-67
2022/01/27 08:00:57;;;;;;;38.70;13.60;;;0.80;99.70;;;;;;5074142;28;20934;-67
2022/01/27 08:03:24;;;;;;;38.30;14.57;;;0.90;99.70;;;;;;5075134;28;20982;-67
2022/01/27 08:05:51;;;;;;;39.67;12.30;;;0.60;99.70;;;;;;5074251;28;20447;-67
2022/01/27 08:08:18;;;;;;;38.80;13.90;;;0.60;99.70;;;;;;5074395;28;20451;-68
2022/01/27 08:10:45;;;;;;;40.10;15.03;;;0.70;99.70;;;;;;5079723;28;20537;-67
2022/01/27 08:13:12;;;;;;;45.33;15.03;;;0.70;99.70;;;;;;5090737;28;20547;-65
2022/01/27 08:15:39;;;;;;;52.03;15.70;;;0.60;99.70;;;;;;5091022;28;20809;-66
2022/01/27 08:18:07;;;;;;;48.30;15.10;;;0.40;99.70;;;;;;5078883;28;20450;-67
2022/01/27 08:20:34;;;;;;;47.00;15.33;;;0.20;99.70;;;;;;5091948;28;20947;-67
2022/01/27 08:23:01;;;;;;;43.93;14.50;;;0.40;99.70;;;;;;5092385;28;20640;-66
2022/01/27 08:25:28;;;;;;;45.07;14.30;;;0.60;99.70;;;;;;5091996;28;20450;-66
2022/01/27 08:27:58;;;;;;;50.27;16.60;;;0.60;99.70;;;;;;5091973;28;20460;-66
2022/01/27 08:30:28;;;;;;;46.37;15.67;;;0.60;99.70;;;;;;5091995;28;20438;-66
2022/01/27 08:32:59;;;;;;;47.43;14.93;;;0.40;99.70;;;;;;5092206;28;20486;-65
2022/01/27 08:35:27;;;;;;;43.40;15.43;;;0.40;99.70;;;;;;5091999;28;20452;-67
2022/01/27 08:37:54;;;;;;;49.67;15.63;;;0.60;99.70;;;;;;5091670;28;20538;-67
2022/01/27 08:40:21;;;;;;;48.50;14.80;;;0.90;99.70;;;;;;5091946;28;20445;-67
2022/01/27 08:42:48;;;;;;;45.83;14.43;;;1.00;99.70;;;;;;5091930;28;20989;-65
2022/01/27 08:45:18;;;;;;;51.70;14.93;;;0.80;99.70;;;;;;5091642;28;20453;-65
2022/01/27 08:47:45;;;;;;;48.07;14.13;;;0.70;99.70;;;;;;5091785;28;20446;-67
2022/01/27 08:50:14;;;;;;;45.70;14.17;;;0.50;99.70;;;;;;5091677;28;20450;-67
2022/01/27 08:52:44;;;;;;;44.53;14.00;;;0.50;99.70;;;;;;5091219;28;21053;-67
2022/01/27 08:55:12;;;;;;;41.43;13.20;;;0.60;99.70;;;;;;5076972;28;20473;-67
2022/01/27 08:57:39;;;;;;;46.67;14.03;;;0.70;99.70;;;;;;5072766;28;20450;-64
2022/01/27 09:00:08;;;;;;;46.53;14.90;;;0.70;99.70;;;;;;5073843;28;21087;-65
2022/01/27 09:02:35;;;;;;;44.77;14.40;;;0.50;99.70;;;;;;5072214;28;20544;-67
2022/01/27 09:05:02;;;;;;;47.67;15.00;;;0.30;99.70;;;;;;5072179;28;20451;-67
2022/01/27 09:07:29;;;;;;;45.50;14.57;;;0.40;99.70;;;;;;5072465;28;20968;-67
2022/01/27 09:09:57;;;;;;;45.23;14.60;;;0.60;99.70;;;;;;5073061;28;20508;-67
2022/01/27 09:12:24;;;;;;;41.60;15.23;;;0.30;99.70;;;;;;5072023;28;20494;-67
2022/01/27 09:14:50;;;;;;;42.47;13.90;;;0.70;99.70;;;;;;5072651;28;20827;-65
2022/01/27 09:17:17;;;;;;;43.87;13.37;;;0.90;99.70;;;;;;5073056;28;20458;-66
2022/01/27 09:19:46;;;;;;;47.47;15.27;;;0.70;99.70;;;;;;5072248;28;20446;-67
2022/01/27 09:22:16;;;;;;;40.23;13.00;;;0.80;99.70;;;;;;5085560;28;20449;-66
2022/01/27 09:24:52;;;;;;;38.63;13.50;;;0.90;99.70;;;;;;5072486;28;20474;-67
2022/01/27 09:27:21;;;;;;;45.57;12.87;;;0.80;99.70;;;;;;5090646;28;20506;-67
2022/01/27 09:29:48;;;;;;;43.20;12.60;;;0.90;99.70;;;;;;5090817;28;20855;-67
2022/01/27 09:32:15;;;;;;;34.10;12.23;;;1.00;99.70;;;;;;5090915;28;20542;-67
2022/01/27 09:34:42;;;;;;;38.80;12.30;;;0.70;99.70;;;;;;5091176;28;20449;-67
2022/01/27 09:37:09;;;;;;;41.43;12.10;;;0.80;99.70;;;;;;5091034;28;20442;-67
2022/01/27 09:39:36;;;;;;;40.83;13.03;;;1.00;99.70;;;;;;5090732;28;20461;-67
2022/01/27 09:42:05;;;;;;;39.53;13.10;;;1.30;99.70;;;;;;5090206;28;20532;-67
2022/01/27 09:44:35;;;;;;;40.37;12.70;;;1.50;99.70;;;;;;5090728;28;20449;-66
2022/01/27 09:47:05;;;;;;;42.13;13.03;;;1.70;99.70;;;;;;5074600;28;20538;-67
2022/01/27 09:49:36;;;;;;;40.77;13.60;;;1.60;99.70;;;;;;5071688;28;20973;-66
2022/01/27 09:52:03;;;;;;;38.10;13.10;;;1.30;99.70;;;;;;5076889;28;20484;-67
2022/01/27 09:54:30;;;;;;;35.53;12.83;;;1.30;99.70;;;;;;5090613;28;20449;-66
2022/01/27 09:56:57;;;;;;;43.47;13.77;;;1.40;99.70;;;;;;5090602;28;20464;-66
2022/01/27 09:59:24;;;;;;;40.60;12.93;;;1.50;99.70;;;;;;5090361;28;20523;-67
2022/01/27 10:01:59;;;;;;;39.90;13.10;;;1.50;99.70;;;;;;5090566;28;20449;-67
2022/01/27 10:04:45;;;;;;;35.53;11.70;;;1.50;99.70;;;;;;5090711;28;20442;-67
2022/01/27 10:07:14;;;;;;;42.33;13.53;;;1.80;99.70;;;;;;5090646;28;20442;-66
2022/01/27 10:09:41;;;;;;;37.60;12.83;;;1.60;99.70;;;;;;5089024;28;20458;-67
2022/01/27 10:12:08;;;;;;;40.43;13.10;;;1.80;99.70;;;;;;5087306;28;20900;-67
2022/01/27 10:14:37;;;;;;;37.67;13.03;;;1.70;99.70;;;;;;5088693;28;20457;-66
2022/01/27 10:17:10;;;;;;;39.10;12.53;;;1.60;99.70;;;;;;5088587;28;20453;-67
2022/01/27 10:19:37;;;;;;;35.17;12.20;;;1.60;99.70;;;;;;5080152;28;20466;-67
2022/01/27 10:22:06;;;;;;;36.77;12.37;;;1.60;99.70;;;;;;5089839;28;20454;-67
2022/01/27 10:24:34;;;;;;;42.20;12.77;;;1.50;99.70;;;;;;5110260;22;20925;-66
2022/01/27 10:27:22;;;;;;;42.77;13.40;;;1.50;99.70;;;;;;5069664;28;20451;-67
2022/01/27 10:30:06;;;;;;;38.60;13.40;;;1.50;99.70;;;;;;5069446;28;20446;-65
2022/01/27 10:32:42;;;;;;;42.43;12.73;;;1.40;99.70;;;;;;5059604;28;20929;-67
2022/01/27 10:35:10;;;;;;;38.90;12.90;;;1.60;99.70;;;;;;5049787;28;20451;-67
2022/01/27 10:37:57;;;;;;;34.23;11.77;;;1.60;99.70;;;;;;5050176;28;20470;-68
2022/01/27 10:40:27;;;;;;;36.70;13.47;;;1.60;99.70;;;;;;5050004;28;20525;-67
2022/01/27 10:43:03;;;;;;;40.67;13.17;;;1.60;99.70;;;;;;5050209;28;20950;-67
2022/01/27 10:45:29;;;;;;;36.97;12.20;;;1.70;99.70;;;;;;5049797;28;20447;-67
2022/01/27 10:48:11;;;;;;;34.50;11.60;;;1.80;99.70;;;;;;5049849;28;20448;-67
2022/01/27 10:50:51;;;;;;;38.23;12.47;;;1.50;99.70;;;;;;5050052;28;20501;-68
2022/01/27 10:53:20;;;;;;;32.33;11.77;;;1.70;99.70;;;;;;5052592;28;20577;-65
2022/01/27 10:56:01;;;;;;;38.30;12.27;;;1.70;99.70;;;;;;5053717;28;20857;-65
2022/01/27 10:58:28;;;;;;;38.13;12.93;;;1.60;99.70;;;;;;5053070;28;20455;-66
2022/01/27 11:00:59;;;;;;;36.30;12.27;;;1.40;99.70;;;;;;5053652;28;20506;-67
2022/01/27 11:03:28;;;;;;;37.93;12.10;;;1.60;99.70;;;;;;5053338;28;20508;-65
2022/01/27 11:05:56;;;;;;;36.40;12.77;;;1.40;99.70;;;;;;5053444;28;20504;-67
2022/01/27 11:08:26;;;;;;;40.33;12.80;;;1.50;99.70;;;;;;5053000;28;20448;-67
2022/01/27 11:10:53;;;;;;;41.77;13.37;;;1.90;99.70;;;;;;5052966;28;20448;-67
2022/01/27 11:13:22;;;;;;;40.97;14.93;;;1.70;99.70;;;;;;5053237;28;20541;-67
2022/01/27 11:15:49;;;;;;;44.63;14.53;;;1.50;99.70;;;;;;5053308;28;20993;-67
2022/01/27 11:18:16;;;;;;;42.13;15.37;;;1.60;99.70;;;;;;5051781;28;20842;-66
2022/01/27 11:20:56;;;;;;;40.20;14.77;;;1.70;99.70;;;;;;5053377;28;20808;-65
2022/01/27 11:26:22;;;;;;;44.23;15.07;;;1.40;99.70;;;;;;5047623;28;20525;-65
2022/01/27 11:28:50;;;;;;;39.40;13.77;;;1.40;99.70;;;;;;5051513;28;20448;-67
2022/01/27 11:31:26;;;;;;;41.30;15.43;;;1.50;99.70;;;;;;5053264;28;20440;-66
2022/01/27 11:34:01;;;;;;;43.80;14.47;;;1.40;99.70;;;;;;5052149;28;20483;-67
2022/01/27 11:36:30;;;;;;;42.83;14.53;;;1.30;99.70;;;;;;5052524;28;20446;-66
2022/01/27 11:38:58;;;;;;;40.93;13.20;;;1.40;99.70;;;;;;5051472;28;20497;-67
2022/01/27 11:41:39;;;;;;;40.40;14.23;;;1.40;99.70;;;;;;5052939;28;20476;-67
2022/01/27 11:44:21;;;;;;;39.53;12.30;;;1.40;99.70;;;;;;5040997;28;20459;-66
2022/01/27 11:47:19;;;;;;;43.13;13.10;;;1.60;99.70;;;;;;5052740;28;20482;-66
2022/01/27 11:49:53;;;;;;;40.47;12.60;;;1.70;99.70;;;;;;5051347;28;20533;-66
2022/01/27 11:52:23;;;;;;;38.83;13.60;;;1.60;99.70;;;;;;5050720;28;20468;-66
2022/01/27 11:54:50;;;;;;;35.03;12.30;;;1.60;99.70;;;;;;5051492;28;20886;-66
2022/01/27 11:57:40;;;;;;;35.27;12.50;;;1.80;99.70;;;;;;5050347;28;20439;-66
2022/01/27 12:00:13;;;;;;;32.80;11.10;;;1.90;99.70;;;;;;5051978;28;20492;-67
2022/01/27 12:03:08;;;;;;;39.57;12.57;;;1.90;99.70;;;;;;5050815;28;20527;-66
2022/01/27 12:05:36;;;;;;;35.67;12.07;;;1.80;99.70;;;;;;5052046;28;20452;-66
2022/01/27 12:08:24;;;;;;;34.37;11.57;;;1.80;99.70;;;;;;5052157;28;20951;-67
2022/01/27 12:10:54;;;;;;;34.50;12.30;;;1.60;99.70;;;;;;5051558;28;20525;-67
2022/01/27 12:13:57;;;;;;;30.87;11.63;;;1.70;99.70;;;;;;5051246;28;20562;-67
2022/01/27 12:16:36;;;;;;;32.70;11.90;;;1.60;99.70;;;;;;5052503;28;20463;-67
2022/01/27 12:19:06;;;;;;;30.80;12.67;;;1.90;99.70;;;;;;5052459;28;20467;-67
2022/01/27 12:21:35;;;;;;;38.93;13.40;;;2.10;99.70;;;;;;5052503;28;20440;-67
2022/01/27 12:24:22;;;;;;;34.53;13.07;;;2.20;99.70;;;;;;5052323;28;20482;-66
2022/01/27 12:26:51;;;;;;;38.37;13.03;;;2.20;99.70;;;;;;5051019;28;20440;-67
2022/01/27 12:29:26;;;;;;;34.97;13.37;;;2.40;99.70;;;;;;5051291;28;20442;-66
2022/01/27 12:31:53;;;;;;;30.80;12.20;;;2.40;99.70;;;;;;5051557;28;20439;-66
2022/01/27 12:34:21;;;;;;;35.93;13.00;;;2.40;99.70;;;;;;5051384;28;20479;-67
2022/01/27 12:37:03;;;;;;;32.07;12.10;;;2.30;99.70;;;;;;5051496;28;20447;-67
2022/01/27 12:39:34;;;;;;;36.43;12.80;;;2.70;99.70;;;;;;5051312;28;20447;-67
2022/01/27 12:42:02;;;;;;;38.13;13.47;;;2.70;99.70;;;;;;5052121;28;20510;-66
2022/01/27 12:44:30;;;;;;;34.33;12.83;;;2.40;99.70;;;;;;5051893;28;20464;-67
2022/01/27 12:47:13;;;;;;;34.27;13.37;;;2.30;99.70;;;;;;5052006;28;20534;-67
2022/01/27 12:49:44;;;;;;;31.33;12.60;;;2.40;99.70;;;;;;5051686;28;20526;-66
2022/01/27 12:52:12;;;;;;;34.17;12.27;;;2.60;99.70;;;;;;5051927;28;20522;-67
2022/01/27 12:54:41;;;;;;;38.17;13.03;;;2.60;99.70;;;;;;5051798;28;20494;-67
2022/01/27 12:57:09;;;;;;;32.07;12.00;;;2.60;99.70;;;;;;5051948;28;20546;-66
2022/01/27 12:59:39;;;;;;;34.80;13.00;;;2.50;99.70;;;;;;5051376;28;20946;-66
2022/01/27 13:02:08;;;;;;;34.83;12.27;;;2.60;99.70;;;;;;5051700;28;20448;-67
2022/01/27 13:04:36;;;;;;;34.20;11.93;;;2.70;99.70;;;;;;5051623;28;20463;-67